sensor_id;sensor_type;location;lat;lon;timestamp;pressure;altitude;pressure_sealevel;temperature;humidity
46303;BME280;32029;51.358;5.628;2023-07-09T00:02:11;101442.38;;;26.69;65.84
46303;BME280;32029;51.358;5.628;2023-07-09T00:04:40;101431.38;;;26.57;65.58
46303;BME280;32029;51.358;5.628;2023-07-09T00:09:42;101419.50;;;26.34;65.95
46303;BME280;32029;51.358;5.628;2023-07-09T00:12:15;101445.41;;;26.42;66.54
46303;BME280;32029;51.358;5.628;2023-07-09T00:14:44;101415.53;;;26.20;66.71
46303;BME280;32029;51.358;5.628;2023-07-09T00:17:27;101434.38;;;26.20;67.36
46303;BME280;32029;51.358;5.628;2023-07-09T00:19:55;101451.53;;;26.23;67.17
46303;BME280;32029;51.358;5.628;2023-07-09T00:22:24;101461.06;;;26.17;67.79
46303;BME280;32029;51.358;5.628;2023-07-09T00:24:54;101445.84;;;26.03;68.13
46303;BME280;32029;51.358;5.628;2023-07-09T00:27:27;101458.25;;;26.07;68.51
46303;BME280;32029;51.358;5.628;2023-07-09T00:29:56;101426.13;;;25.87;68.69
46303;BME280;32029;51.358;5.628;2023-07-09T00:32:24;101454.25;;;25.98;69.11
46303;BME280;32029;51.358;5.628;2023-07-09T00:34:51;101460.44;;;25.95;69.29
46303;BME280;32029;51.358;5.628;2023-07-09T00:37:21;101457.59;;;25.89;69.59
46303;BME280;32029;51.358;5.628;2023-07-09T00:39:53;101460.41;;;25.84;69.46
46303;BME280;32029;51.358;5.628;2023-07-09T00:42:21;101437.25;;;25.67;70.10
46303;BME280;32029;51.358;5.628;2023-07-09T00:44:53;101446.78;;;25.66;69.81
46303;BME280;32029;51.358;5.628;2023-07-09T00:50:05;101416.06;;;25.44;70.75
46303;BME280;32029;51.358;5.628;2023-07-09T00:52:43;101450.41;;;25.61;70.55
46303;BME280;32029;51.358;5.628;2023-07-09T00:55:20;101453.53;;;25.65;71.24
46303;BME280;32029;51.358;5.628;2023-07-09T00:57:58;101444.19;;;25.54;71.40
46303;BME280;32029;51.358;5.628;2023-07-09T01:00:34;101443.88;;;25.51;70.97
46303;BME280;32029;51.358;5.628;2023-07-09T01:03:20;101462.44;;;25.52;71.33
46303;BME280;32029;51.358;5.628;2023-07-09T01:05:49;101451.75;;;25.49;71.73
46303;BME280;32029;51.358;5.628;2023-07-09T01:08:19;101457.06;;;25.45;71.73
46303;BME280;32029;51.358;5.628;2023-07-09T01:10:48;101452.81;;;25.42;71.50
46303;BME280;32029;51.358;5.628;2023-07-09T01:13:17;101444.91;;;25.34;71.83
46303;BME280;32029;51.358;5.628;2023-07-09T01:15:46;101447.47;;;25.36;72.02
46303;BME280;32029;51.358;5.628;2023-07-09T01:18:13;101452.78;;;25.32;72.22
46303;BME280;32029;51.358;5.628;2023-07-09T01:20:42;101454.44;;;25.28;72.17
46303;BME280;32029;51.358;5.628;2023-07-09T01:23:09;101451.31;;;25.25;72.24
46303;BME280;32029;51.358;5.628;2023-07-09T01:25:46;101444.78;;;25.14;72.88
46303;BME280;32029;51.358;5.628;2023-07-09T01:28:13;101450.72;;;25.17;72.72
46303;BME280;32029;51.358;5.628;2023-07-09T01:30:41;101456.00;;;25.14;72.92
46303;BME280;32029;51.358;5.628;2023-07-09T01:33:09;101460.19;;;25.11;73.19
46303;BME280;32029;51.358;5.628;2023-07-09T01:35:39;101459.28;;;25.06;73.84
46303;BME280;32029;51.358;5.628;2023-07-09T01:38:09;101446.88;;;24.97;73.92
46303;BME280;32029;51.358;5.628;2023-07-09T01:40:37;101464.88;;;25.01;73.96
46303;BME280;32029;51.358;5.628;2023-07-09T01:43:04;101468.53;;;25.01;74.51
46303;BME280;32029;51.358;5.628;2023-07-09T01:45:34;101446.50;;;24.88;74.65
46303;BME280;32029;51.358;5.628;2023-07-09T01:48:01;101466.53;;;24.97;74.98
46303;BME280;32029;51.358;5.628;2023-07-09T01:50:28;101429.19;;;24.64;74.81
46303;BME280;32029;51.358;5.628;2023-07-09T01:52:56;101447.00;;;24.80;75.37
46303;BME280;32029;51.358;5.628;2023-07-09T01:55:24;101455.41;;;24.80;74.73
46303;BME280;32029;51.358;5.628;2023-07-09T01:57:52;101470.38;;;24.85;74.28
46303;BME280;32029;51.358;5.628;2023-07-09T02:00:19;101437.88;;;24.62;74.16
46303;BME280;32029;51.358;5.628;2023-07-09T02:02:47;101458.09;;;24.64;74.41
46303;BME280;32029;51.358;5.628;2023-07-09T02:05:18;101464.59;;;24.70;74.46
46303;BME280;32029;51.358;5.628;2023-07-09T02:07:47;101475.31;;;24.73;75.03
46303;BME280;32029;51.358;5.628;2023-07-09T02:10:16;101465.94;;;24.62;75.42
46303;BME280;32029;51.358;5.628;2023-07-09T02:12:43;101478.63;;;24.70;75.67
46303;BME280;32029;51.358;5.628;2023-07-09T02:15:10;101468.78;;;24.67;75.80
46303;BME280;32029;51.358;5.628;2023-07-09T02:17:38;101480.28;;;24.66;75.59
46303;BME280;32029;51.358;5.628;2023-07-09T02:20:06;101467.34;;;24.65;75.86
46303;BME280;32029;51.358;5.628;2023-07-09T02:22:35;101445.88;;;24.49;76.53
46303;BME280;32029;51.358;5.628;2023-07-09T02:25:03;101474.91;;;24.64;76.61
46303;BME280;32029;51.358;5.628;2023-07-09T02:27:32;101469.31;;;24.64;76.58
46303;BME280;32029;51.358;5.628;2023-07-09T02:30:44;101464.19;;;24.56;76.63
46303;BME280;32029;51.358;5.628;2023-07-09T02:33:15;101473.50;;;24.62;76.92
46303;BME280;32029;51.358;5.628;2023-07-09T02:35:52;101452.06;;;24.51;76.98
46303;BME280;32029;51.358;5.628;2023-07-09T02:38:31;101468.66;;;24.57;77.58
46303;BME280;32029;51.358;5.628;2023-07-09T02:41:07;101472.28;;;24.53;77.45
46303;BME280;32029;51.358;5.628;2023-07-09T02:43:40;101467.75;;;24.47;77.91
46303;BME280;32029;51.358;5.628;2023-07-09T02:46:10;101474.19;;;24.47;78.51
46303;BME280;32029;51.358;5.628;2023-07-09T02:48:43;101469.94;;;24.44;78.60
46303;BME280;32029;51.358;5.628;2023-07-09T02:51:27;101471.59;;;24.40;78.23
46303;BME280;32029;51.358;5.628;2023-07-09T02:54:01;101444.75;;;24.23;78.39
46303;BME280;32029;51.358;5.628;2023-07-09T02:56:30;101452.03;;;24.24;78.88
46303;BME280;32029;51.358;5.628;2023-07-09T02:58:56;101459.34;;;24.25;79.23
46303;BME280;32029;51.358;5.628;2023-07-09T03:01:23;101456.16;;;24.16;79.23
46303;BME280;32029;51.358;5.628;2023-07-09T03:03:54;101473.06;;;24.26;79.66
46303;BME280;32029;51.358;5.628;2023-07-09T03:06:22;101478.41;;;24.23;79.87
46303;BME280;32029;51.358;5.628;2023-07-09T03:08:51;101472.47;;;24.19;79.35
46303;BME280;32029;51.358;5.628;2023-07-09T03:11:20;101469.06;;;24.17;79.91
46303;BME280;32029;51.358;5.628;2023-07-09T03:13:47;101469.56;;;24.14;79.72
46303;BME280;32029;51.358;5.628;2023-07-09T03:16:16;101470.97;;;24.11;80.35
46303;BME280;32029;51.358;5.628;2023-07-09T03:18:42;101479.63;;;24.10;80.30
46303;BME280;32029;51.358;5.628;2023-07-09T03:21:09;101481.00;;;24.07;79.79
46303;BME280;32029;51.358;5.628;2023-07-09T03:23:37;101480.41;;;24.05;80.11
46303;BME280;32029;51.358;5.628;2023-07-09T03:26:05;101465.41;;;23.94;80.69
46303;BME280;32029;51.358;5.628;2023-07-09T03:28:32;101457.28;;;23.93;80.32
46303;BME280;32029;51.358;5.628;2023-07-09T03:30:59;101404.34;;;23.53;80.43
46303;BME280;32029;51.358;5.628;2023-07-09T03:33:27;101472.75;;;23.95;80.63
46303;BME280;32029;51.358;5.628;2023-07-09T03:35:54;101458.53;;;23.80;81.09
46303;BME280;32029;51.358;5.628;2023-07-09T03:38:22;101478.25;;;23.90;81.13
46303;BME280;32029;51.358;5.628;2023-07-09T03:40:53;101475.47;;;23.90;81.30
46303;BME280;32029;51.358;5.628;2023-07-09T03:43:22;101473.72;;;23.84;81.34
46303;BME280;32029;51.358;5.628;2023-07-09T03:45:50;101458.44;;;23.75;81.12
46303;BME280;32029;51.358;5.628;2023-07-09T03:48:18;101423.97;;;23.53;81.16
46303;BME280;32029;51.358;5.628;2023-07-09T03:50:47;101463.81;;;23.77;81.21
46303;BME280;32029;51.358;5.628;2023-07-09T03:53:16;101464.66;;;23.77;81.35
46303;BME280;32029;51.358;5.628;2023-07-09T03:55:46;101482.13;;;23.84;81.58
46303;BME280;32029;51.358;5.628;2023-07-09T03:58:13;101489.69;;;23.84;81.39
46303;BME280;32029;51.358;5.628;2023-07-09T04:00:41;101486.00;;;23.83;81.46
46303;BME280;32029;51.358;5.628;2023-07-09T04:03:08;101469.59;;;23.70;81.69
46303;BME280;32029;51.358;5.628;2023-07-09T04:05:36;101484.31;;;23.82;81.92
46303;BME280;32029;51.358;5.628;2023-07-09T04:08:04;101473.38;;;23.81;81.96
46303;BME280;32029;51.358;5.628;2023-07-09T04:10:31;101465.22;;;23.79;81.43
46303;BME280;32029;51.358;5.628;2023-07-09T04:12:58;101413.22;;;23.44;81.26
46303;BME280;32029;51.358;5.628;2023-07-09T04:15:26;101444.88;;;23.67;81.14
46303;BME280;32029;51.358;5.628;2023-07-09T04:17:54;101474.78;;;23.83;81.19
46303;BME280;32029;51.358;5.628;2023-07-09T04:20:21;101466.94;;;23.80;81.41
46303;BME280;32029;51.358;5.628;2023-07-09T04:22:49;101480.16;;;23.85;81.08
46303;BME280;32029;51.358;5.628;2023-07-09T04:25:16;101476.25;;;23.86;80.63
46303;BME280;32029;51.358;5.628;2023-07-09T04:27:44;101449.41;;;23.68;80.71
46303;BME280;32029;51.358;5.628;2023-07-09T04:30:13;101488.38;;;23.91;80.82
46303;BME280;32029;51.358;5.628;2023-07-09T04:32:43;101487.84;;;23.94;80.72
46303;BME280;32029;51.358;5.628;2023-07-09T04:35:11;101455.97;;;23.79;80.72
46303;BME280;32029;51.358;5.628;2023-07-09T04:37:39;101482.88;;;24.02;81.14
46303;BME280;32029;51.358;5.628;2023-07-09T04:40:07;101481.25;;;24.06;81.05
46303;BME280;32029;51.358;5.628;2023-07-09T04:42:38;101480.22;;;24.12;81.09
46303;BME280;32029;51.358;5.628;2023-07-09T04:45:07;101482.50;;;24.15;80.93
46303;BME280;32029;51.358;5.628;2023-07-09T04:47:37;101453.81;;;24.08;81.39
46303;BME280;32029;51.358;5.628;2023-07-09T04:50:05;101473.94;;;24.27;81.15
46303;BME280;32029;51.358;5.628;2023-07-09T04:52:32;101445.50;;;24.18;81.32
46303;BME280;32029;51.358;5.628;2023-07-09T04:55:00;101447.78;;;24.21;80.82
46303;BME280;32029;51.358;5.628;2023-07-09T04:57:28;101462.25;;;24.35;81.44
46303;BME280;32029;51.358;5.628;2023-07-09T04:59:56;101478.16;;;24.51;81.10
46303;BME280;32029;51.358;5.628;2023-07-09T05:02:24;101469.53;;;24.58;81.38
46303;BME280;32029;51.358;5.628;2023-07-09T05:04:52;101433.50;;;24.44;80.97
46303;BME280;32029;51.358;5.628;2023-07-09T05:07:19;101449.34;;;24.61;81.21
46303;BME280;32029;51.358;5.628;2023-07-09T05:09:47;101464.13;;;24.78;81.30
46303;BME280;32029;51.358;5.628;2023-07-09T05:12:15;101459.06;;;24.80;81.03
46303;BME280;32029;51.358;5.628;2023-07-09T05:14:43;101400.75;;;24.50;80.61
46303;BME280;32029;51.358;5.628;2023-07-09T05:17:11;101441.69;;;24.83;80.69
46303;BME280;32029;51.358;5.628;2023-07-09T05:19:39;101471.97;;;25.08;80.78
46303;BME280;32029;51.358;5.628;2023-07-09T05:22:06;101471.75;;;25.15;80.90
46303;BME280;32029;51.358;5.628;2023-07-09T05:24:34;101478.56;;;25.24;81.13
46303;BME280;32029;51.358;5.628;2023-07-09T05:27:02;101459.75;;;25.25;80.23
46303;BME280;32029;51.358;5.628;2023-07-09T05:29:29;101463.72;;;25.29;79.61
46303;BME280;32029;51.358;5.628;2023-07-09T05:31:56;101472.53;;;25.48;79.54
46303;BME280;32029;51.358;5.628;2023-07-09T05:34:23;101459.03;;;25.45;79.28
46303;BME280;32029;51.358;5.628;2023-07-09T05:36:51;101467.50;;;25.55;78.45
46303;BME280;32029;51.358;5.628;2023-07-09T05:39:18;101460.81;;;25.61;78.17
46303;BME280;32029;51.358;5.628;2023-07-09T05:41:46;101440.56;;;25.59;78.04
46303;BME280;32029;51.358;5.628;2023-07-09T05:44:17;101464.88;;;25.80;77.89
46303;BME280;32029;51.358;5.628;2023-07-09T05:46:45;101479.28;;;25.99;77.50
46303;BME280;32029;51.358;5.628;2023-07-09T05:49:13;101446.09;;;25.91;76.93
46303;BME280;32029;51.358;5.628;2023-07-09T05:51:42;101475.13;;;26.17;76.32
46303;BME280;32029;51.358;5.628;2023-07-09T05:54:10;101460.50;;;26.15;75.99
46303;BME280;32029;51.358;5.628;2023-07-09T05:56:38;101472.94;;;26.34;75.82
46303;BME280;32029;51.358;5.628;2023-07-09T05:59:06;101476.66;;;26.45;76.30
46303;BME280;32029;51.358;5.628;2023-07-09T06:01:34;101459.78;;;26.45;76.68
46303;BME280;32029;51.358;5.628;2023-07-09T06:04:02;101485.41;;;26.64;76.82
46303;BME280;32029;51.358;5.628;2023-07-09T06:06:30;101465.69;;;26.64;76.13
46303;BME280;32029;51.358;5.628;2023-07-09T06:08:57;101479.78;;;26.79;75.50
46303;BME280;32029;51.358;5.628;2023-07-09T06:11:25;101447.16;;;26.68;74.98
46303;BME280;32029;51.358;5.628;2023-07-09T06:13:53;101460.38;;;26.83;75.33
46303;BME280;32029;51.358;5.628;2023-07-09T06:16:20;101448.81;;;26.79;74.77
46303;BME280;32029;51.358;5.628;2023-07-09T06:18:46;101447.13;;;26.83;74.11
46303;BME280;32029;51.358;5.628;2023-07-09T06:21:14;101479.28;;;27.13;73.07
46303;BME280;32029;51.358;5.628;2023-07-09T06:23:42;101457.84;;;27.02;72.57
46303;BME280;32029;51.358;5.628;2023-07-09T06:26:10;101471.09;;;27.17;72.70
46303;BME280;32029;51.358;5.628;2023-07-09T06:28:38;101477.56;;;27.27;72.00
46303;BME280;32029;51.358;5.628;2023-07-09T06:31:05;101486.84;;;27.38;72.07
46303;BME280;32029;51.358;5.628;2023-07-09T06:33:32;101475.88;;;27.36;72.91
46303;BME280;32029;51.358;5.628;2023-07-09T06:36:02;101491.59;;;27.53;71.75
46303;BME280;32029;51.358;5.628;2023-07-09T06:38:30;101419.56;;;27.16;71.70
46303;BME280;32029;51.358;5.628;2023-07-09T06:40:58;101492.13;;;27.65;71.01
46303;BME280;32029;51.358;5.628;2023-07-09T06:43:25;101468.50;;;27.56;71.04
46303;BME280;32029;51.358;5.628;2023-07-09T06:45:58;101487.34;;;27.76;71.13
46303;BME280;32029;51.358;5.628;2023-07-09T06:48:28;101489.31;;;27.86;70.82
46303;BME280;32029;51.358;5.628;2023-07-09T06:50:57;101500.00;;;27.94;70.51
46303;BME280;32029;51.358;5.628;2023-07-09T06:53:25;101476.84;;;27.92;69.48
46303;BME280;32029;51.358;5.628;2023-07-09T06:55:52;101501.88;;;28.08;68.22
46303;BME280;32029;51.358;5.628;2023-07-09T06:58:26;101492.53;;;28.18;68.14
46303;BME280;32029;51.358;5.628;2023-07-09T07:00:55;101479.31;;;28.14;67.55
46303;BME280;32029;51.358;5.628;2023-07-09T07:03:24;101496.44;;;28.32;67.24
46303;BME280;32029;51.358;5.628;2023-07-09T07:05:52;101495.00;;;28.40;66.93
46303;BME280;32029;51.358;5.628;2023-07-09T07:08:25;101487.91;;;28.43;66.01
46303;BME280;32029;51.358;5.628;2023-07-09T07:11:00;101482.78;;;28.50;65.52
46303;BME280;32029;51.358;5.628;2023-07-09T07:13:40;101485.50;;;28.65;65.17
46303;BME280;32029;51.358;5.628;2023-07-09T07:16:12;101485.22;;;28.67;64.50
46303;BME280;32029;51.358;5.628;2023-07-09T07:18:41;101477.56;;;28.72;63.79
46303;BME280;32029;51.358;5.628;2023-07-09T07:21:08;101452.19;;;28.67;63.99
46303;BME280;32029;51.358;5.628;2023-07-09T07:23:36;101489.78;;;28.97;63.68
46303;BME280;32029;51.358;5.628;2023-07-09T07:26:04;101485.22;;;29.06;63.67
46303;BME280;32029;51.358;5.628;2023-07-09T07:28:31;101494.19;;;29.13;63.62
46303;BME280;32029;51.358;5.628;2023-07-09T07:31:01;101474.41;;;29.13;62.87
46303;BME280;32029;51.358;5.628;2023-07-09T07:33:28;101475.50;;;29.17;61.73
46303;BME280;32029;51.358;5.628;2023-07-09T07:35:55;101492.88;;;29.35;61.44
46303;BME280;32029;51.358;5.628;2023-07-09T07:38:27;101488.91;;;29.36;60.56
46303;BME280;32029;51.358;5.628;2023-07-09T07:40:56;101483.50;;;29.39;60.16
46303;BME280;32029;51.358;5.628;2023-07-09T07:43:22;101499.75;;;29.52;60.81
46303;BME280;32029;51.358;5.628;2023-07-09T07:45:50;101482.25;;;29.50;60.43
46303;BME280;32029;51.358;5.628;2023-07-09T07:48:18;101474.88;;;29.54;60.35
46303;BME280;32029;51.358;5.628;2023-07-09T07:50:46;101488.56;;;29.71;60.59
46303;BME280;32029;51.358;5.628;2023-07-09T07:53:15;101485.44;;;29.73;59.30
46303;BME280;32029;51.358;5.628;2023-07-09T07:55:42;101497.78;;;29.82;58.40
46303;BME280;32029;51.358;5.628;2023-07-09T07:58:11;101509.25;;;29.91;56.66
46303;BME280;32029;51.358;5.628;2023-07-09T08:00:40;101498.50;;;29.93;56.23
46303;BME280;32029;51.358;5.628;2023-07-09T08:03:07;101499.81;;;30.00;55.81
46303;BME280;32029;51.358;5.628;2023-07-09T08:05:34;101497.22;;;30.04;56.33
46303;BME280;32029;51.358;5.628;2023-07-09T08:08:01;101470.44;;;29.96;55.73
46303;BME280;32029;51.358;5.628;2023-07-09T08:10:27;101479.03;;;30.10;54.50
46303;BME280;32029;51.358;5.628;2023-07-09T08:12:55;101462.13;;;30.05;55.72
46303;BME280;32029;51.358;5.628;2023-07-09T08:15:24;101486.97;;;30.32;54.52
46303;BME280;32029;51.358;5.628;2023-07-09T08:17:51;101491.41;;;30.38;54.71
46303;BME280;32029;51.358;5.628;2023-07-09T08:20:17;101482.38;;;30.36;54.33
46303;BME280;32029;51.358;5.628;2023-07-09T08:22:49;101485.69;;;30.43;55.33
46303;BME280;32029;51.358;5.628;2023-07-09T08:25:17;101497.06;;;30.57;55.54
46303;BME280;32029;51.358;5.628;2023-07-09T08:27:45;101470.22;;;30.55;55.69
46303;BME280;32029;51.358;5.628;2023-07-09T08:30:11;101486.09;;;30.74;54.80
46303;BME280;32029;51.358;5.628;2023-07-09T08:32:38;101483.69;;;30.82;54.25
46303;BME280;32029;51.358;5.628;2023-07-09T08:35:06;101474.56;;;30.85;54.47
46303;BME280;32029;51.358;5.628;2023-07-09T08:37:34;101477.03;;;30.91;55.27
46303;BME280;32029;51.358;5.628;2023-07-09T08:40:01;101479.16;;;30.99;55.11
46303;BME280;32029;51.358;5.628;2023-07-09T08:42:42;101480.13;;;31.09;54.45
46303;BME280;32029;51.358;5.628;2023-07-09T08:47:52;101481.84;;;31.23;53.42
46303;BME280;32029;51.358;5.628;2023-07-09T08:50:35;101481.47;;;31.30;53.39
46303;BME280;32029;51.358;5.628;2023-07-09T08:53:04;101475.41;;;31.37;53.82
46303;BME280;32029;51.358;5.628;2023-07-09T08:55:33;101464.59;;;31.39;53.97
46303;BME280;32029;51.358;5.628;2023-07-09T08:58:14;101463.34;;;31.45;52.08
46303;BME280;32029;51.358;5.628;2023-07-09T09:00:51;101479.53;;;31.58;52.02
46303;BME280;32029;51.358;5.628;2023-07-09T09:03:47;101479.41;;;31.63;53.13
46303;BME280;32029;51.358;5.628;2023-07-09T09:06:25;101464.31;;;31.68;52.67
46303;BME280;32029;51.358;5.628;2023-07-09T09:14:30;101482.31;;;31.91;52.43
46303;BME280;32029;51.358;5.628;2023-07-09T09:17:01;101461.38;;;31.87;52.20
46303;BME280;32029;51.358;5.628;2023-07-09T09:19:33;101476.94;;;32.03;52.15
46303;BME280;32029;51.358;5.628;2023-07-09T09:22:08;101483.00;;;32.10;52.41
46303;BME280;32029;51.358;5.628;2023-07-09T09:24:46;101476.09;;;32.16;52.22
46303;BME280;32029;51.358;5.628;2023-07-09T09:27:18;101469.91;;;32.14;52.61
46303;BME280;32029;51.358;5.628;2023-07-09T09:29:47;101466.81;;;32.25;53.17
46303;BME280;32029;51.358;5.628;2023-07-09T09:34:47;101467.88;;;32.42;53.02
46303;BME280;32029;51.358;5.628;2023-07-09T09:37:27;101468.56;;;32.48;52.91
46303;BME280;32029;51.358;5.628;2023-07-09T09:39:56;101444.69;;;32.49;51.65
46303;BME280;32029;51.358;5.628;2023-07-09T09:42:24;101443.94;;;32.57;51.73
46303;BME280;32029;51.358;5.628;2023-07-09T09:44:54;101436.78;;;32.60;51.99
46303;BME280;32029;51.358;5.628;2023-07-09T09:47:26;101431.47;;;32.67;51.27
46303;BME280;32029;51.358;5.628;2023-07-09T09:49:54;101420.97;;;32.67;51.81
46303;BME280;32029;51.358;5.628;2023-07-09T09:52:26;101430.91;;;32.79;51.23
46303;BME280;32029;51.358;5.628;2023-07-09T09:55:02;101437.16;;;32.89;50.59
46303;BME280;32029;51.358;5.628;2023-07-09T09:57:31;101435.38;;;32.93;50.49
46303;BME280;32029;51.358;5.628;2023-07-09T09:59:58;101431.03;;;32.96;49.98
46303;BME280;32029;51.358;5.628;2023-07-09T10:02:26;101438.81;;;33.04;49.06
46303;BME280;32029;51.358;5.628;2023-07-09T10:04:53;101447.19;;;33.09;49.33
46303;BME280;32029;51.358;5.628;2023-07-09T10:07:28;101437.69;;;33.14;48.19
46303;BME280;32029;51.358;5.628;2023-07-09T10:09:57;101428.59;;;33.03;49.38
46303;BME280;32029;51.358;5.628;2023-07-09T10:15:21;101443.94;;;33.25;47.49
46303;BME280;32029;51.358;5.628;2023-07-09T10:18:00;101441.78;;;33.30;47.62
46303;BME280;32029;51.358;5.628;2023-07-09T10:20:38;101427.53;;;33.22;47.29
46303;BME280;32029;51.358;5.628;2023-07-09T10:23:27;101436.28;;;33.34;46.26
46303;BME280;32029;51.358;5.628;2023-07-09T10:26:22;101435.63;;;33.37;45.70
46303;BME280;32029;51.358;5.628;2023-07-09T10:29:07;101440.00;;;33.43;45.31
46303;BME280;32029;51.358;5.628;2023-07-09T10:34:48;101438.09;;;33.52;47.16
46303;BME280;32029;51.358;5.628;2023-07-09T10:40:38;101436.59;;;33.55;46.64
46303;BME280;32029;51.358;5.628;2023-07-09T10:43:15;101433.25;;;33.61;45.52
46303;BME280;32029;51.358;5.628;2023-07-09T10:45:54;101444.34;;;33.72;45.75
46303;BME280;32029;51.358;5.628;2023-07-09T10:48:46;101447.41;;;33.84;46.34
46303;BME280;32029;51.358;5.628;2023-07-09T10:51:33;101446.09;;;33.90;47.02
46303;BME280;32029;51.358;5.628;2023-07-09T10:57:00;101432.28;;;34.14;46.49
46303;BME280;32029;51.358;5.628;2023-07-09T10:59:37;101427.94;;;34.26;45.32
46303;BME280;32029;51.358;5.628;2023-07-09T11:02:23;101419.56;;;34.38;46.12
46303;BME280;32029;51.358;5.628;2023-07-09T11:10:21;101423.94;;;34.70;42.49
46303;BME280;32029;51.358;5.628;2023-07-09T11:13:09;101404.66;;;34.67;41.63
46303;BME280;32029;51.358;5.628;2023-07-09T11:15:41;101431.94;;;34.94;41.21
46303;BME280;32029;51.358;5.628;2023-07-09T11:18:16;101417.22;;;34.92;40.19
46303;BME280;32029;51.358;5.628;2023-07-09T11:20:55;101444.84;;;35.18;40.33
46303;BME280;32029;51.358;5.628;2023-07-09T11:23:37;101435.63;;;35.21;39.69
46303;BME280;32029;51.358;5.628;2023-07-09T11:26:25;101441.41;;;35.42;40.55
46303;BME280;32029;51.358;5.628;2023-07-09T11:31:38;101443.25;;;35.84;38.88
46303;BME280;32029;51.358;5.628;2023-07-09T11:39:43;101449.97;;;36.39;37.96
46303;BME280;32029;51.358;5.628;2023-07-09T11:42:30;101450.28;;;36.46;37.48
46303;BME280;32029;51.358;5.628;2023-07-09T11:47:34;101456.72;;;36.64;37.82
46303;BME280;32029;51.358;5.628;2023-07-09T11:50:26;101468.63;;;36.87;38.16
46303;BME280;32029;51.358;5.628;2023-07-09T11:53:00;101469.66;;;37.03;37.65
46303;BME280;32029;51.358;5.628;2023-07-09T11:55:40;101469.00;;;37.19;37.85
46303;BME280;32029;51.358;5.628;2023-07-09T11:58:15;101475.94;;;37.30;36.18
46303;BME280;32029;51.358;5.628;2023-07-09T12:00:54;101472.00;;;37.35;37.03
46303;BME280;32029;51.358;5.628;2023-07-09T12:07:09;101467.88;;;37.57;37.11
46303;BME280;32029;51.358;5.628;2023-07-09T12:09:54;101466.03;;;37.73;35.88
46303;BME280;32029;51.358;5.628;2023-07-09T12:12:26;101444.53;;;37.67;35.84
46303;BME280;32029;51.358;5.628;2023-07-09T12:14:55;101448.84;;;37.73;35.94
46303;BME280;32029;51.358;5.628;2023-07-09T12:17:26;101437.63;;;37.80;35.62
46303;BME280;32029;51.358;5.628;2023-07-09T12:19:54;101456.88;;;37.92;35.69
46303;BME280;32029;51.358;5.628;2023-07-09T12:22:21;101442.88;;;37.90;35.91
46303;BME280;32029;51.358;5.628;2023-07-09T12:24:50;101430.47;;;37.86;36.00
46303;BME280;32029;51.358;5.628;2023-07-09T12:27:25;101444.69;;;37.95;35.84
46303;BME280;32029;51.358;5.628;2023-07-09T12:29:56;101431.28;;;37.87;36.19
46303;BME280;32029;51.358;5.628;2023-07-09T12:32:24;101415.44;;;37.77;36.10
46303;BME280;32029;51.358;5.628;2023-07-09T12:34:55;101407.56;;;37.74;36.58
46303;BME280;32029;51.358;5.628;2023-07-09T12:37:31;101423.09;;;37.61;37.60
46303;BME280;32029;51.358;5.628;2023-07-09T12:40:00;101444.28;;;37.60;38.81
46303;BME280;32029;51.358;5.628;2023-07-09T12:42:36;101418.72;;;37.30;39.61
46303;BME280;32029;51.358;5.628;2023-07-09T12:45:05;101452.91;;;37.26;40.36
46303;BME280;32029;51.358;5.628;2023-07-09T12:47:32;101417.44;;;36.94;40.79
46303;BME280;32029;51.358;5.628;2023-07-09T12:53:14;101445.69;;;36.54;41.34
46303;BME280;32029;51.358;5.628;2023-07-09T12:55:45;101403.56;;;36.00;41.89
46303;BME280;32029;51.358;5.628;2023-07-09T12:58:19;101439.84;;;36.00;41.92
46303;BME280;32029;51.358;5.628;2023-07-09T13:00:49;101440.16;;;35.69;42.89
46303;BME280;32029;51.358;5.628;2023-07-09T13:03:25;101372.59;;;35.05;43.27
46303;BME280;32029;51.358;5.628;2023-07-09T13:06:02;101447.16;;;35.33;43.32
46303;BME280;32029;51.358;5.628;2023-07-09T13:08:41;101443.69;;;35.19;44.15
46303;BME280;32029;51.358;5.628;2023-07-09T13:11:18;101422.09;;;34.92;43.89
46303;BME280;32029;51.358;5.628;2023-07-09T13:13:59;101422.91;;;34.92;44.09
46303;BME280;32029;51.358;5.628;2023-07-09T13:16:28;101386.72;;;34.67;44.55
46303;BME280;32029;51.358;5.628;2023-07-09T13:18:56;101418.91;;;34.76;44.80
46303;BME280;32029;51.358;5.628;2023-07-09T13:21:23;101407.19;;;34.69;45.46
46303;BME280;32029;51.358;5.628;2023-07-09T13:23:53;101421.41;;;34.60;46.28
46303;BME280;32029;51.358;5.628;2023-07-09T13:26:22;101407.00;;;34.48;47.10
46303;BME280;32029;51.358;5.628;2023-07-09T13:28:49;101411.84;;;34.47;47.20
46303;BME280;32029;51.358;5.628;2023-07-09T13:31:20;101407.50;;;34.41;47.49
46303;BME280;32029;51.358;5.628;2023-07-09T13:33:53;101413.53;;;34.22;47.63
46303;BME280;32029;51.358;5.628;2023-07-09T13:36:22;101425.41;;;34.16;48.05
46303;BME280;32029;51.358;5.628;2023-07-09T13:38:50;101435.59;;;34.17;48.40
46303;BME280;32029;51.358;5.628;2023-07-09T13:41:19;101451.63;;;33.95;49.25
46303;BME280;32029;51.358;5.628;2023-07-09T13:43:49;101504.47;;;33.79;49.50
46303;BME280;32029;51.358;5.628;2023-07-09T13:46:18;101520.13;;;33.36;50.36
46303;BME280;32029;51.358;5.628;2023-07-09T13:48:45;101571.75;;;33.30;52.22
46303;BME280;32029;51.358;5.628;2023-07-09T13:51:22;101600.09;;;32.99;52.84
46303;BME280;32029;51.358;5.628;2023-07-09T13:53:53;101602.25;;;32.52;58.41
46303;BME280;32029;51.358;5.628;2023-07-09T13:56:21;101418.25;;;30.64;65.00
46303;BME280;32029;51.358;5.628;2023-07-09T13:58:48;101603.81;;;30.81;71.81
46303;BME280;32029;51.358;5.628;2023-07-09T14:01:23;101568.97;;;29.60;75.46